F/V Roger Christian3 — FUFL — position and weather

sailwx.info

Track history (hours):
 
Tides and Currents Weather Stations Pressure Air Temp Water Temp Dewpoint Dewpoint Depression Visibility Wind Speed Wind Dir Waves Ship Positions

F/V Roger Christian3

Last reported at 2018-Apr-20 15:05 UTC. Time now 2018-Apr-22 10:55 UTC.
Position N 43°24' E 003°42'.

Length 24 m; draft 4 m.

Type: Fishing. MMSI: 228173800.

Date/timePositionNaut miles runAvg speedWind from/ knotsBaromVisibWave heightAir tempDewpointWater temp
2018-Apr-20 15:05N 43°24' E 003°42'110.3
2018-Apr-20 15:00N 43°24' E 003°43'611.3
2018-Apr-20 14:26N 43°21' E 003°51'3 8.1
2018-Apr-20 14:00N 43°19' E 003°55'2 3.3
2018-Apr-20 13:31N 43°18' E 003°57'2 4.6
2018-Apr-20 13:00N 43°16' E 003°59'3 4.6
2018-Apr-20 12:25N 43°15' E 004°02'2 4.6
2018-Apr-20 11:59N 43°14' E 004°04'3 4.7
2018-Apr-20 11:27N 43°13' E 004°07'10 1.0
2018-Apr-20 01:51N 43°17' E 003°55'511.3
2018-Apr-20 01:25N 43°20' E 003°50'511.2
2018-Apr-20 01:00N 43°22' E 003°45'3 0.3
2018-Apr-19 14:57N 43°24' E 003°42'  
Track history (hours):
 
Tides and Currents Weather Stations Pressure Air Temp Water Temp Dewpoint Dewpoint Depression Visibility Wind Speed Wind Dir Waves Ship Positions

F/V Roger Christian3

Last reported at 2018-Apr-20 15:05 UTC. Time now 2018-Apr-22 10:55 UTC.
Position N 43°24' E 003°42'.

Length 24 m; draft 4 m.

Type: Fishing. MMSI: 228173800.

Date/timePositionNaut miles runAvg speedWind from/ knotsBaromVisibWave heightAir tempDewpointWater temp
2018-Apr-20 15:05N 43°24' E 003°42'110.3
2018-Apr-20 15:00N 43°24' E 003°43'611.3
2018-Apr-20 14:26N 43°21' E 003°51'3 8.1
2018-Apr-20 14:00N 43°19' E 003°55'2 3.3
2018-Apr-20 13:31N 43°18' E 003°57'2 4.6
2018-Apr-20 13:00N 43°16' E 003°59'3 4.6
2018-Apr-20 12:25N 43°15' E 004°02'2 4.6
2018-Apr-20 11:59N 43°14' E 004°04'3 4.7
2018-Apr-20 11:27N 43°13' E 004°07'10 1.0
2018-Apr-20 01:51N 43°17' E 003°55'511.3
2018-Apr-20 01:25N 43°20' E 003°50'511.2
2018-Apr-20 01:00N 43°22' E 003°45'3 0.3
2018-Apr-19 14:57N 43°24' E 003°42'  

Dump ship's entire track history